sensor_id;sensor_type;location;lat;lon;timestamp;temperature;humidity
10344;DHT22;5217;43.960;10.954;2023-04-15T00:00:55;15.10;97.80
10344;DHT22;5217;43.960;10.954;2023-04-15T00:03:24;15.10;97.90
10344;DHT22;5217;43.960;10.954;2023-04-15T00:05:53;15.10;98.00
10344;DHT22;5217;43.960;10.954;2023-04-15T00:08:21;15.10;98.20
10344;DHT22;5217;43.960;10.954;2023-04-15T00:10:52;15.10;98.40
10344;DHT22;5217;43.960;10.954;2023-04-15T00:13:20;15.10;98.50
10344;DHT22;5217;43.960;10.954;2023-04-15T00:15:48;15.10;98.80
10344;DHT22;5217;43.960;10.954;2023-04-15T00:18:17;15.00;98.80
10344;DHT22;5217;43.960;10.954;2023-04-15T00:20:45;15.00;98.80
10344;DHT22;5217;43.960;10.954;2023-04-15T00:23:13;15.10;98.80
10344;DHT22;5217;43.960;10.954;2023-04-15T00:25:42;15.00;98.90
10344;DHT22;5217;43.960;10.954;2023-04-15T00:28:11;15.00;99.10
10344;DHT22;5217;43.960;10.954;2023-04-15T00:30:40;15.00;99.20
10344;DHT22;5217;43.960;10.954;2023-04-15T00:33:08;15.00;99.20
10344;DHT22;5217;43.960;10.954;2023-04-15T00:35:36;15.00;99.30
10344;DHT22;5217;43.960;10.954;2023-04-15T00:38:05;15.00;99.40
10344;DHT22;5217;43.960;10.954;2023-04-15T00:40:34;14.90;99.50
10344;DHT22;5217;43.960;10.954;2023-04-15T00:43:02;14.90;99.60
10344;DHT22;5217;43.960;10.954;2023-04-15T00:45:33;14.90;99.70
10344;DHT22;5217;43.960;10.954;2023-04-15T00:48:01;14.90;99.70
10344;DHT22;5217;43.960;10.954;2023-04-15T00:50:30;15.00;99.80
10344;DHT22;5217;43.960;10.954;2023-04-15T00:52:58;14.90;99.80
10344;DHT22;5217;43.960;10.954;2023-04-15T00:55:27;14.90;99.80
10344;DHT22;5217;43.960;10.954;2023-04-15T00:57:56;14.90;99.90
10344;DHT22;5217;43.960;10.954;2023-04-15T01:00:24;14.90;99.90
10344;DHT22;5217;43.960;10.954;2023-04-15T01:02:54;14.90;99.90
10344;DHT22;5217;43.960;10.954;2023-04-15T01:05:22;14.90;99.90
10344;DHT22;5217;43.960;10.954;2023-04-15T01:07:51;14.90;99.90
10344;DHT22;5217;43.960;10.954;2023-04-15T01:10:19;14.90;99.90
10344;DHT22;5217;43.960;10.954;2023-04-15T01:12:48;14.80;99.90
10344;DHT22;5217;43.960;10.954;2023-04-15T01:15:17;14.80;99.90
10344;DHT22;5217;43.960;10.954;2023-04-15T01:17:46;14.80;99.90
10344;DHT22;5217;43.960;10.954;2023-04-15T01:20:17;14.80;99.90
10344;DHT22;5217;43.960;10.954;2023-04-15T01:22:45;14.80;99.90
10344;DHT22;5217;43.960;10.954;2023-04-15T01:25:18;14.90;99.90
10344;DHT22;5217;43.960;10.954;2023-04-15T01:27:49;14.80;99.90
10344;DHT22;5217;43.960;10.954;2023-04-15T01:30:17;14.90;99.90
10344;DHT22;5217;43.960;10.954;2023-04-15T01:32:46;14.90;99.90
10344;DHT22;5217;43.960;10.954;2023-04-15T01:35:14;14.90;99.90
10344;DHT22;5217;43.960;10.954;2023-04-15T01:37:44;14.90;99.90
10344;DHT22;5217;43.960;10.954;2023-04-15T01:40:12;14.90;99.90
10344;DHT22;5217;43.960;10.954;2023-04-15T01:42:41;14.90;99.90
10344;DHT22;5217;43.960;10.954;2023-04-15T01:45:11;14.90;99.90
10344;DHT22;5217;43.960;10.954;2023-04-15T01:47:40;14.80;99.90
10344;DHT22;5217;43.960;10.954;2023-04-15T01:50:10;14.90;99.90
10344;DHT22;5217;43.960;10.954;2023-04-15T01:52:39;14.80;99.90
10344;DHT22;5217;43.960;10.954;2023-04-15T01:55:08;14.80;99.90
10344;DHT22;5217;43.960;10.954;2023-04-15T01:57:37;14.80;99.80
10344;DHT22;5217;43.960;10.954;2023-04-15T02:00:06;14.80;99.80
10344;DHT22;5217;43.960;10.954;2023-04-15T02:02:37;14.80;99.80
10344;DHT22;5217;43.960;10.954;2023-04-15T02:05:07;14.80;99.80
10344;DHT22;5217;43.960;10.954;2023-04-15T02:07:35;14.80;99.70
10344;DHT22;5217;43.960;10.954;2023-04-15T02:10:05;14.80;99.70
10344;DHT22;5217;43.960;10.954;2023-04-15T02:12:33;14.80;99.80
10344;DHT22;5217;43.960;10.954;2023-04-15T02:15:03;14.80;99.90
10344;DHT22;5217;43.960;10.954;2023-04-15T02:17:33;14.80;99.90
10344;DHT22;5217;43.960;10.954;2023-04-15T02:20:04;14.80;99.80
10344;DHT22;5217;43.960;10.954;2023-04-15T02:22:33;14.70;99.90
10344;DHT22;5217;43.960;10.954;2023-04-15T02:25:01;14.80;99.90
10344;DHT22;5217;43.960;10.954;2023-04-15T02:27:30;14.70;99.90
10344;DHT22;5217;43.960;10.954;2023-04-15T02:29:58;14.70;99.80
10344;DHT22;5217;43.960;10.954;2023-04-15T02:32:27;14.70;99.80
10344;DHT22;5217;43.960;10.954;2023-04-15T02:34:58;14.70;99.70
10344;DHT22;5217;43.960;10.954;2023-04-15T02:37:31;14.70;99.70
10344;DHT22;5217;43.960;10.954;2023-04-15T02:40:02;14.70;99.70
10344;DHT22;5217;43.960;10.954;2023-04-15T02:42:31;14.70;99.60
10344;DHT22;5217;43.960;10.954;2023-04-15T02:44:59;14.70;99.60
10344;DHT22;5217;43.960;10.954;2023-04-15T02:47:28;14.70;99.50
10344;DHT22;5217;43.960;10.954;2023-04-15T02:49:57;14.70;99.50
10344;DHT22;5217;43.960;10.954;2023-04-15T02:52:27;14.70;99.50
10344;DHT22;5217;43.960;10.954;2023-04-15T02:54:56;14.60;99.40
10344;DHT22;5217;43.960;10.954;2023-04-15T02:57:26;14.70;99.50
10344;DHT22;5217;43.960;10.954;2023-04-15T02:59:55;14.70;99.50
10344;DHT22;5217;43.960;10.954;2023-04-15T03:02:24;14.60;99.40
10344;DHT22;5217;43.960;10.954;2023-04-15T03:04:53;14.70;99.40
10344;DHT22;5217;43.960;10.954;2023-04-15T03:07:22;14.60;99.40
10344;DHT22;5217;43.960;10.954;2023-04-15T03:09:50;14.60;99.40
10344;DHT22;5217;43.960;10.954;2023-04-15T03:12:20;14.60;99.40
10344;DHT22;5217;43.960;10.954;2023-04-15T03:14:48;14.60;99.30
10344;DHT22;5217;43.960;10.954;2023-04-15T03:17:16;14.60;99.30
10344;DHT22;5217;43.960;10.954;2023-04-15T03:19:45;14.60;99.30
10344;DHT22;5217;43.960;10.954;2023-04-15T03:22:13;14.60;99.30
10344;DHT22;5217;43.960;10.954;2023-04-15T03:24:41;14.50;99.40
10344;DHT22;5217;43.960;10.954;2023-04-15T03:27:10;14.50;99.40
10344;DHT22;5217;43.960;10.954;2023-04-15T03:29:40;14.50;99.50
10344;DHT22;5217;43.960;10.954;2023-04-15T03:32:08;14.50;99.50
10344;DHT22;5217;43.960;10.954;2023-04-15T03:34:37;14.50;99.60
10344;DHT22;5217;43.960;10.954;2023-04-15T03:37:05;14.50;99.70
10344;DHT22;5217;43.960;10.954;2023-04-15T03:39:33;14.50;99.80
10344;DHT22;5217;43.960;10.954;2023-04-15T03:42:02;14.50;99.80
10344;DHT22;5217;43.960;10.954;2023-04-15T03:44:30;14.50;99.80
10344;DHT22;5217;43.960;10.954;2023-04-15T03:47:00;14.50;99.80
10344;DHT22;5217;43.960;10.954;2023-04-15T03:49:28;14.40;99.80
10344;DHT22;5217;43.960;10.954;2023-04-15T03:51:57;14.40;99.80
10344;DHT22;5217;43.960;10.954;2023-04-15T03:54:25;14.40;99.80
10344;DHT22;5217;43.960;10.954;2023-04-15T03:56:53;14.40;99.90
10344;DHT22;5217;43.960;10.954;2023-04-15T03:59:22;14.40;99.90
10344;DHT22;5217;43.960;10.954;2023-04-15T04:01:51;14.40;99.90
10344;DHT22;5217;43.960;10.954;2023-04-15T04:04:21;14.40;99.90
10344;DHT22;5217;43.960;10.954;2023-04-15T04:06:49;14.40;99.90
10344;DHT22;5217;43.960;10.954;2023-04-15T04:09:17;14.40;99.90
10344;DHT22;5217;43.960;10.954;2023-04-15T04:11:46;14.40;99.90
10344;DHT22;5217;43.960;10.954;2023-04-15T04:14:14;14.40;99.90
10344;DHT22;5217;43.960;10.954;2023-04-15T04:16:42;14.30;99.10
10344;DHT22;5217;43.960;10.954;2023-04-15T04:19:11;14.30;98.80
10344;DHT22;5217;43.960;10.954;2023-04-15T04:21:42;14.30;98.80
10344;DHT22;5217;43.960;10.954;2023-04-15T04:24:10;14.30;99.00
10344;DHT22;5217;43.960;10.954;2023-04-15T04:26:38;14.30;99.10
10344;DHT22;5217;43.960;10.954;2023-04-15T04:29:07;14.30;99.10
10344;DHT22;5217;43.960;10.954;2023-04-15T04:31:35;14.30;99.20
10344;DHT22;5217;43.960;10.954;2023-04-15T04:34:03;14.30;99.20
10344;DHT22;5217;43.960;10.954;2023-04-15T04:36:32;14.30;99.20
10344;DHT22;5217;43.960;10.954;2023-04-15T04:39:01;14.30;99.30
10344;DHT22;5217;43.960;10.954;2023-04-15T04:41:30;14.20;99.40
10344;DHT22;5217;43.960;10.954;2023-04-15T04:43:58;14.30;99.60
10344;DHT22;5217;43.960;10.954;2023-04-15T04:46:28;14.30;99.60
10344;DHT22;5217;43.960;10.954;2023-04-15T04:48:56;14.30;99.60
10344;DHT22;5217;43.960;10.954;2023-04-15T04:51:24;14.20;99.60
10344;DHT22;5217;43.960;10.954;2023-04-15T04:53:53;14.20;99.60
10344;DHT22;5217;43.960;10.954;2023-04-15T04:56:24;14.20;99.60
10344;DHT22;5217;43.960;10.954;2023-04-15T04:58:52;14.20;99.70
10344;DHT22;5217;43.960;10.954;2023-04-15T05:01:21;14.20;99.80
10344;DHT22;5217;43.960;10.954;2023-04-15T05:03:49;14.20;99.90
10344;DHT22;5217;43.960;10.954;2023-04-15T05:06:18;14.20;99.90
10344;DHT22;5217;43.960;10.954;2023-04-15T05:08:46;14.20;99.90
10344;DHT22;5217;43.960;10.954;2023-04-15T05:11:14;14.20;99.90
10344;DHT22;5217;43.960;10.954;2023-04-15T05:13:44;14.20;99.90
10344;DHT22;5217;43.960;10.954;2023-04-15T05:16:12;14.20;99.90
10344;DHT22;5217;43.960;10.954;2023-04-15T05:18:41;14.20;99.90
10344;DHT22;5217;43.960;10.954;2023-04-15T05:21:09;14.20;99.90
10344;DHT22;5217;43.960;10.954;2023-04-15T05:23:38;14.20;99.90
10344;DHT22;5217;43.960;10.954;2023-04-15T05:26:07;14.20;99.90
10344;DHT22;5217;43.960;10.954;2023-04-15T05:28:35;14.20;99.90
10344;DHT22;5217;43.960;10.954;2023-04-15T05:31:05;14.20;99.90
10344;DHT22;5217;43.960;10.954;2023-04-15T05:33:34;14.20;99.90
10344;DHT22;5217;43.960;10.954;2023-04-15T05:36:03;14.20;99.90
10344;DHT22;5217;43.960;10.954;2023-04-15T05:38:32;14.20;99.90
10344;DHT22;5217;43.960;10.954;2023-04-15T05:41:00;14.20;99.90
10344;DHT22;5217;43.960;10.954;2023-04-15T05:43:29;14.20;99.90
10344;DHT22;5217;43.960;10.954;2023-04-15T05:45:57;14.20;99.90
10344;DHT22;5217;43.960;10.954;2023-04-15T05:48:27;14.20;99.90
10344;DHT22;5217;43.960;10.954;2023-04-15T05:50:55;14.20;99.90
10344;DHT22;5217;43.960;10.954;2023-04-15T05:53:24;14.20;99.90
10344;DHT22;5217;43.960;10.954;2023-04-15T05:55:52;14.10;99.90
10344;DHT22;5217;43.960;10.954;2023-04-15T05:58:20;14.10;99.90
10344;DHT22;5217;43.960;10.954;2023-04-15T06:00:49;14.10;99.90
10344;DHT22;5217;43.960;10.954;2023-04-15T06:03:17;14.20;99.90
10344;DHT22;5217;43.960;10.954;2023-04-15T06:05:47;14.10;99.90
10344;DHT22;5217;43.960;10.954;2023-04-15T06:08:15;14.20;99.90
10344;DHT22;5217;43.960;10.954;2023-04-15T06:10:44;14.20;99.90
10344;DHT22;5217;43.960;10.954;2023-04-15T06:13:13;14.20;99.90
10344;DHT22;5217;43.960;10.954;2023-04-15T06:15:42;14.20;99.90
10344;DHT22;5217;43.960;10.954;2023-04-15T06:18:11;14.20;99.90
10344;DHT22;5217;43.960;10.954;2023-04-15T06:20:39;14.20;99.90
10344;DHT22;5217;43.960;10.954;2023-04-15T06:23:09;14.30;99.90
10344;DHT22;5217;43.960;10.954;2023-04-15T06:25:37;14.20;99.90
10344;DHT22;5217;43.960;10.954;2023-04-15T06:28:06;14.30;99.90
10344;DHT22;5217;43.960;10.954;2023-04-15T06:30:34;14.20;99.90
10344;DHT22;5217;43.960;10.954;2023-04-15T06:33:03;14.20;99.90
10344;DHT22;5217;43.960;10.954;2023-04-15T06:35:32;14.30;99.90
10344;DHT22;5217;43.960;10.954;2023-04-15T06:38:00;14.20;99.90
10344;DHT22;5217;43.960;10.954;2023-04-15T06:40:31;14.20;99.90
10344;DHT22;5217;43.960;10.954;2023-04-15T06:42:59;14.20;99.90
10344;DHT22;5217;43.960;10.954;2023-04-15T06:45:27;14.20;99.90
10344;DHT22;5217;43.960;10.954;2023-04-15T06:47:56;14.30;99.90
10344;DHT22;5217;43.960;10.954;2023-04-15T06:50:24;14.30;99.90
10344;DHT22;5217;43.960;10.954;2023-04-15T06:52:53;14.30;99.90
10344;DHT22;5217;43.960;10.954;2023-04-15T06:55:21;14.30;99.90
10344;DHT22;5217;43.960;10.954;2023-04-15T06:57:51;14.30;99.90
10344;DHT22;5217;43.960;10.954;2023-04-15T07:00:20;14.30;99.90
10344;DHT22;5217;43.960;10.954;2023-04-15T07:02:48;14.30;99.90
10344;DHT22;5217;43.960;10.954;2023-04-15T07:05:17;14.40;99.90
10344;DHT22;5217;43.960;10.954;2023-04-15T07:07:46;14.40;99.90
10344;DHT22;5217;43.960;10.954;2023-04-15T07:10:14;14.40;99.90
10344;DHT22;5217;43.960;10.954;2023-04-15T07:12:42;14.40;99.90
10344;DHT22;5217;43.960;10.954;2023-04-15T07:15:13;14.50;99.90
10344;DHT22;5217;43.960;10.954;2023-04-15T07:17:41;14.50;99.90
10344;DHT22;5217;43.960;10.954;2023-04-15T07:20:11;14.50;99.90
10344;DHT22;5217;43.960;10.954;2023-04-15T07:22:39;14.50;99.90
10344;DHT22;5217;43.960;10.954;2023-04-15T07:25:08;14.50;99.90
10344;DHT22;5217;43.960;10.954;2023-04-15T07:27:37;14.60;99.90
10344;DHT22;5217;43.960;10.954;2023-04-15T07:30:06;14.50;99.90
10344;DHT22;5217;43.960;10.954;2023-04-15T07:32:36;14.60;99.90
10344;DHT22;5217;43.960;10.954;2023-04-15T07:35:05;14.60;99.90
10344;DHT22;5217;43.960;10.954;2023-04-15T07:37:33;14.60;99.90
10344;DHT22;5217;43.960;10.954;2023-04-15T07:40:02;14.60;99.90
10344;DHT22;5217;43.960;10.954;2023-04-15T07:42:33;14.60;99.90
10344;DHT22;5217;43.960;10.954;2023-04-15T07:45:04;14.70;99.90
10344;DHT22;5217;43.960;10.954;2023-04-15T07:47:32;14.70;99.90
10344;DHT22;5217;43.960;10.954;2023-04-15T07:50:02;14.70;99.90
10344;DHT22;5217;43.960;10.954;2023-04-15T07:52:31;14.80;99.90
10344;DHT22;5217;43.960;10.954;2023-04-15T07:55:05;14.70;99.90
10344;DHT22;5217;43.960;10.954;2023-04-15T07:57:34;14.80;99.90
10344;DHT22;5217;43.960;10.954;2023-04-15T08:00:04;14.80;99.90
10344;DHT22;5217;43.960;10.954;2023-04-15T08:02:34;14.70;99.90
10344;DHT22;5217;43.960;10.954;2023-04-15T08:05:07;14.80;99.90
10344;DHT22;5217;43.960;10.954;2023-04-15T08:07:36;14.70;99.90
10344;DHT22;5217;43.960;10.954;2023-04-15T08:10:06;14.80;99.90
10344;DHT22;5217;43.960;10.954;2023-04-15T08:12:35;14.80;99.90
10344;DHT22;5217;43.960;10.954;2023-04-15T08:15:04;14.80;99.90
10344;DHT22;5217;43.960;10.954;2023-04-15T08:17:34;14.80;99.90
10344;DHT22;5217;43.960;10.954;2023-04-15T08:20:03;14.80;99.90
10344;DHT22;5217;43.960;10.954;2023-04-15T08:22:33;14.90;99.90
10344;DHT22;5217;43.960;10.954;2023-04-15T08:25:02;14.80;99.50
10344;DHT22;5217;43.960;10.954;2023-04-15T08:27:31;14.90;99.40
10344;DHT22;5217;43.960;10.954;2023-04-15T08:29:59;14.90;99.10
10344;DHT22;5217;43.960;10.954;2023-04-15T08:32:30;14.90;98.80
10344;DHT22;5217;43.960;10.954;2023-04-15T08:34:59;14.80;98.40
10344;DHT22;5217;43.960;10.954;2023-04-15T08:37:27;14.90;97.90
10344;DHT22;5217;43.960;10.954;2023-04-15T08:39:57;14.90;97.80
10344;DHT22;5217;43.960;10.954;2023-04-15T08:42:30;14.90;97.80
10344;DHT22;5217;43.960;10.954;2023-04-15T08:44:59;14.90;98.00
10344;DHT22;5217;43.960;10.954;2023-04-15T08:47:29;14.90;98.30
10344;DHT22;5217;43.960;10.954;2023-04-15T08:49:59;14.90;98.60
10344;DHT22;5217;43.960;10.954;2023-04-15T08:52:30;14.90;98.70
10344;DHT22;5217;43.960;10.954;2023-04-15T08:55:01;14.90;98.70
10344;DHT22;5217;43.960;10.954;2023-04-15T08:57:32;14.90;98.70
10344;DHT22;5217;43.960;10.954;2023-04-15T09:00:02;14.90;98.70
10344;DHT22;5217;43.960;10.954;2023-04-15T09:02:31;14.90;98.40
10344;DHT22;5217;43.960;10.954;2023-04-15T09:05:00;14.90;97.90
10344;DHT22;5217;43.960;10.954;2023-04-15T09:07:33;14.90;97.50
10344;DHT22;5217;43.960;10.954;2023-04-15T09:10:04;14.80;97.30
10344;DHT22;5217;43.960;10.954;2023-04-15T09:12:34;14.80;97.30
10344;DHT22;5217;43.960;10.954;2023-04-15T09:15:03;14.80;97.10
10344;DHT22;5217;43.960;10.954;2023-04-15T09:17:32;14.80;96.90
10344;DHT22;5217;43.960;10.954;2023-04-15T09:20:08;14.90;97.00
10344;DHT22;5217;43.960;10.954;2023-04-15T09:22:38;14.80;96.90
10344;DHT22;5217;43.960;10.954;2023-04-15T09:25:24;14.80;97.00
10344;DHT22;5217;43.960;10.954;2023-04-15T09:27:54;14.90;97.40
10344;DHT22;5217;43.960;10.954;2023-04-15T09:30:23;14.90;97.50
10344;DHT22;5217;43.960;10.954;2023-04-15T09:32:53;14.90;97.50
10344;DHT22;5217;43.960;10.954;2023-04-15T09:35:23;14.90;97.50
10344;DHT22;5217;43.960;10.954;2023-04-15T09:37:53;15.00;97.70
10344;DHT22;5217;43.960;10.954;2023-04-15T09:40:34;15.00;98.10
10344;DHT22;5217;43.960;10.954;2023-04-15T09:43:03;15.10;98.10
10344;DHT22;5217;43.960;10.954;2023-04-15T09:45:33;15.00;98.20
10344;DHT22;5217;43.960;10.954;2023-04-15T09:48:15;15.10;98.50
10344;DHT22;5217;43.960;10.954;2023-04-15T09:50:43;15.10;98.40
10344;DHT22;5217;43.960;10.954;2023-04-15T09:53:16;15.10;98.60
10344;DHT22;5217;43.960;10.954;2023-04-15T09:55:49;15.10;98.40
10344;DHT22;5217;43.960;10.954;2023-04-15T09:58:19;15.10;98.10
10344;DHT22;5217;43.960;10.954;2023-04-15T10:00:48;15.10;97.90
10344;DHT22;5217;43.960;10.954;2023-04-15T10:03:19;15.10;97.90
10344;DHT22;5217;43.960;10.954;2023-04-15T10:05:49;15.20;98.10
10344;DHT22;5217;43.960;10.954;2023-04-15T10:08:19;15.20;98.20
10344;DHT22;5217;43.960;10.954;2023-04-15T10:10:49;15.20;98.20
10344;DHT22;5217;43.960;10.954;2023-04-15T10:13:19;15.30;98.00
10344;DHT22;5217;43.960;10.954;2023-04-15T10:15:53;15.30;98.10
10344;DHT22;5217;43.960;10.954;2023-04-15T10:18:24;15.30;98.30
10344;DHT22;5217;43.960;10.954;2023-04-15T10:20:53;15.30;98.20
10344;DHT22;5217;43.960;10.954;2023-04-15T10:23:22;15.40;98.40
10344;DHT22;5217;43.960;10.954;2023-04-15T10:25:53;15.40;98.40
10344;DHT22;5217;43.960;10.954;2023-04-15T10:28:22;15.40;98.20
10344;DHT22;5217;43.960;10.954;2023-04-15T10:30:51;15.40;97.80
10344;DHT22;5217;43.960;10.954;2023-04-15T10:33:22;15.40;97.70
10344;DHT22;5217;43.960;10.954;2023-04-15T10:35:52;15.40;97.60
10344;DHT22;5217;43.960;10.954;2023-04-15T10:38:31;15.40;97.50
10344;DHT22;5217;43.960;10.954;2023-04-15T10:41:22;15.50;97.70
10344;DHT22;5217;43.960;10.954;2023-04-15T10:43:53;15.50;97.70
10344;DHT22;5217;43.960;10.954;2023-04-15T10:46:23;15.50;97.70
10344;DHT22;5217;43.960;10.954;2023-04-15T10:48:52;15.60;97.60
10344;DHT22;5217;43.960;10.954;2023-04-15T10:51:29;15.50;97.00
10344;DHT22;5217;43.960;10.954;2023-04-15T10:53:58;15.60;96.60
10344;DHT22;5217;43.960;10.954;2023-04-15T10:56:29;15.60;96.50
10344;DHT22;5217;43.960;10.954;2023-04-15T10:59:00;15.60;96.70
10344;DHT22;5217;43.960;10.954;2023-04-15T11:01:54;15.70;96.70
10344;DHT22;5217;43.960;10.954;2023-04-15T11:04:52;15.70;96.30
10344;DHT22;5217;43.960;10.954;2023-04-15T11:07:34;15.80;95.70
10344;DHT22;5217;43.960;10.954;2023-04-15T11:10:03;15.80;95.50
10344;DHT22;5217;43.960;10.954;2023-04-15T11:12:36;16.00;95.70
10344;DHT22;5217;43.960;10.954;2023-04-15T11:15:27;16.10;95.10
10344;DHT22;5217;43.960;10.954;2023-04-15T11:17:57;16.40;95.60
10344;DHT22;5217;43.960;10.954;2023-04-15T11:20:26;16.70;95.70
10344;DHT22;5217;43.960;10.954;2023-04-15T11:22:54;16.90;95.60
10344;DHT22;5217;43.960;10.954;2023-04-15T11:25:40;17.30;95.30
10344;DHT22;5217;43.960;10.954;2023-04-15T11:28:12;17.50;95.10
10344;DHT22;5217;43.960;10.954;2023-04-15T11:30:41;17.70;93.80
10344;DHT22;5217;43.960;10.954;2023-04-15T11:33:11;18.00;93.10
10344;DHT22;5217;43.960;10.954;2023-04-15T11:35:40;18.20;92.70
10344;DHT22;5217;43.960;10.954;2023-04-15T11:38:10;18.40;92.70
10344;DHT22;5217;43.960;10.954;2023-04-15T11:40:40;18.70;93.30
10344;DHT22;5217;43.960;10.954;2023-04-15T11:43:15;19.10;93.60
10344;DHT22;5217;43.960;10.954;2023-04-15T11:45:51;19.30;92.20
10344;DHT22;5217;43.960;10.954;2023-04-15T11:48:21;19.60;90.80
10344;DHT22;5217;43.960;10.954;2023-04-15T11:50:54;19.80;90.80
10344;DHT22;5217;43.960;10.954;2023-04-15T11:53:23;20.10;91.30
10344;DHT22;5217;43.960;10.954;2023-04-15T11:55:53;20.40;90.30
10344;DHT22;5217;43.960;10.954;2023-04-15T11:58:24;20.60;86.50
10344;DHT22;5217;43.960;10.954;2023-04-15T12:00:55;20.80;85.50
10344;DHT22;5217;43.960;10.954;2023-04-15T12:03:26;21.10;84.70
10344;DHT22;5217;43.960;10.954;2023-04-15T12:06:21;21.30;84.50
10344;DHT22;5217;43.960;10.954;2023-04-15T12:08:59;21.70;83.70
10344;DHT22;5217;43.960;10.954;2023-04-15T12:11:35;22.00;84.90
10344;DHT22;5217;43.960;10.954;2023-04-15T12:14:08;22.20;82.70
10344;DHT22;5217;43.960;10.954;2023-04-15T12:16:37;22.40;80.70
10344;DHT22;5217;43.960;10.954;2023-04-15T12:19:17;22.70;80.90
10344;DHT22;5217;43.960;10.954;2023-04-15T12:21:48;23.00;79.30
10344;DHT22;5217;43.960;10.954;2023-04-15T12:24:20;23.20;77.80
10344;DHT22;5217;43.960;10.954;2023-04-15T12:26:51;23.50;78.70
10344;DHT22;5217;43.960;10.954;2023-04-15T12:29:24;23.80;78.20
10344;DHT22;5217;43.960;10.954;2023-04-15T12:31:55;24.00;77.20
10344;DHT22;5217;43.960;10.954;2023-04-15T12:34:28;24.20;75.60
10344;DHT22;5217;43.960;10.954;2023-04-15T12:36:58;24.40;76.70
10344;DHT22;5217;43.960;10.954;2023-04-15T12:39:28;24.60;76.60
10344;DHT22;5217;43.960;10.954;2023-04-15T12:41:58;24.90;74.20
10344;DHT22;5217;43.960;10.954;2023-04-15T12:44:29;25.10;73.40
10344;DHT22;5217;43.960;10.954;2023-04-15T12:46:58;25.50;73.40
10344;DHT22;5217;43.960;10.954;2023-04-15T12:49:28;25.60;71.30
10344;DHT22;5217;43.960;10.954;2023-04-15T12:51:58;25.90;71.70
10344;DHT22;5217;43.960;10.954;2023-04-15T12:54:27;26.10;73.20
10344;DHT22;5217;43.960;10.954;2023-04-15T12:56:56;26.40;71.80
10344;DHT22;5217;43.960;10.954;2023-04-15T12:59:25;26.50;70.50
10344;DHT22;5217;43.960;10.954;2023-04-15T13:01:55;26.50;68.90
10344;DHT22;5217;43.960;10.954;2023-04-15T13:04:24;26.50;69.00
10344;DHT22;5217;43.960;10.954;2023-04-15T13:06:57;26.40;67.60
10344;DHT22;5217;43.960;10.954;2023-04-15T13:09:25;26.20;68.40
10344;DHT22;5217;43.960;10.954;2023-04-15T13:11:54;26.10;68.60
10344;DHT22;5217;43.960;10.954;2023-04-15T13:14:23;26.10;68.50
10344;DHT22;5217;43.960;10.954;2023-04-15T13:16:51;26.20;68.00
10344;DHT22;5217;43.960;10.954;2023-04-15T13:19:22;26.40;68.10
10344;DHT22;5217;43.960;10.954;2023-04-15T13:21:50;26.70;68.00
10344;DHT22;5217;43.960;10.954;2023-04-15T13:24:19;27.00;67.00
10344;DHT22;5217;43.960;10.954;2023-04-15T13:26:47;27.20;65.30
10344;DHT22;5217;43.960;10.954;2023-04-15T13:29:16;27.40;64.80
10344;DHT22;5217;43.960;10.954;2023-04-15T13:31:44;27.50;63.50
10344;DHT22;5217;43.960;10.954;2023-04-15T13:34:13;27.60;62.70
10344;DHT22;5217;43.960;10.954;2023-04-15T13:36:43;27.60;61.60
10344;DHT22;5217;43.960;10.954;2023-04-15T13:39:12;27.80;63.30
10344;DHT22;5217;43.960;10.954;2023-04-15T13:41:41;27.60;61.40
10344;DHT22;5217;43.960;10.954;2023-04-15T13:44:09;27.40;61.40
10344;DHT22;5217;43.960;10.954;2023-04-15T13:46:38;27.50;61.60
10344;DHT22;5217;43.960;10.954;2023-04-15T13:49:07;27.50;62.00
10344;DHT22;5217;43.960;10.954;2023-04-15T13:51:36;27.60;63.00
10344;DHT22;5217;43.960;10.954;2023-04-15T13:54:05;27.40;61.10
10344;DHT22;5217;43.960;10.954;2023-04-15T13:56:34;27.20;61.60
10344;DHT22;5217;43.960;10.954;2023-04-15T13:59:02;27.10;60.20
10344;DHT22;5217;43.960;10.954;2023-04-15T14:01:33;27.10;60.00
10344;DHT22;5217;43.960;10.954;2023-04-15T14:04:01;27.10;59.80
10344;DHT22;5217;43.960;10.954;2023-04-15T14:06:30;27.10;60.40
10344;DHT22;5217;43.960;10.954;2023-04-15T14:08:59;26.90;60.70
10344;DHT22;5217;43.960;10.954;2023-04-15T14:11:29;26.80;60.70
10344;DHT22;5217;43.960;10.954;2023-04-15T14:13:57;26.70;61.70
10344;DHT22;5217;43.960;10.954;2023-04-15T14:16:26;26.60;62.70
10344;DHT22;5217;43.960;10.954;2023-04-15T14:18:55;26.30;61.00
10344;DHT22;5217;43.960;10.954;2023-04-15T14:21:24;26.10;62.10
10344;DHT22;5217;43.960;10.954;2023-04-15T14:23:54;25.80;62.90
10344;DHT22;5217;43.960;10.954;2023-04-15T14:26:23;25.60;64.10
10344;DHT22;5217;43.960;10.954;2023-04-15T14:28:54;25.50;65.60
10344;DHT22;5217;43.960;10.954;2023-04-15T14:31:22;25.30;65.60
10344;DHT22;5217;43.960;10.954;2023-04-15T14:33:52;25.20;64.90
10344;DHT22;5217;43.960;10.954;2023-04-15T14:36:21;25.00;63.50
10344;DHT22;5217;43.960;10.954;2023-04-15T14:38:49;24.80;63.10
10344;DHT22;5217;43.960;10.954;2023-04-15T14:41:18;24.70;63.50
10344;DHT22;5217;43.960;10.954;2023-04-15T14:43:46;24.50;63.70
10344;DHT22;5217;43.960;10.954;2023-04-15T14:46:16;24.40;64.00
10344;DHT22;5217;43.960;10.954;2023-04-15T14:48:44;24.30;64.90
10344;DHT22;5217;43.960;10.954;2023-04-15T14:51:13;24.10;66.40
10344;DHT22;5217;43.960;10.954;2023-04-15T14:53:42;24.00;67.00
10344;DHT22;5217;43.960;10.954;2023-04-15T14:56:10;23.80;67.50
10344;DHT22;5217;43.960;10.954;2023-04-15T14:58:39;23.70;70.70
10344;DHT22;5217;43.960;10.954;2023-04-15T15:01:07;23.60;75.00
10344;DHT22;5217;43.960;10.954;2023-04-15T15:03:38;23.40;77.10
10344;DHT22;5217;43.960;10.954;2023-04-15T15:06:07;23.30;79.00
10344;DHT22;5217;43.960;10.954;2023-04-15T15:08:35;23.20;80.40
10344;DHT22;5217;43.960;10.954;2023-04-15T15:11:03;23.00;82.10
10344;DHT22;5217;43.960;10.954;2023-04-15T15:13:32;22.90;83.80
10344;DHT22;5217;43.960;10.954;2023-04-15T15:16:01;22.90;85.10
10344;DHT22;5217;43.960;10.954;2023-04-15T15:18:29;22.80;86.00
10344;DHT22;5217;43.960;10.954;2023-04-15T15:20:59;22.70;86.50
10344;DHT22;5217;43.960;10.954;2023-04-15T15:23:28;22.60;87.50
10344;DHT22;5217;43.960;10.954;2023-04-15T15:25:57;22.50;88.10
10344;DHT22;5217;43.960;10.954;2023-04-15T15:28:26;22.40;88.00
10344;DHT22;5217;43.960;10.954;2023-04-15T15:30:54;22.30;87.40
10344;DHT22;5217;43.960;10.954;2023-04-15T15:33:22;22.20;87.40
10344;DHT22;5217;43.960;10.954;2023-04-15T15:35:51;22.10;87.80
10344;DHT22;5217;43.960;10.954;2023-04-15T15:38:21;22.00;88.60
10344;DHT22;5217;43.960;10.954;2023-04-15T15:40:49;22.00;88.60
10344;DHT22;5217;43.960;10.954;2023-04-15T15:43:18;21.90;88.30
10344;DHT22;5217;43.960;10.954;2023-04-15T15:45:46;21.90;87.20